sensor_id;sensor_type;location;lat;lon;timestamp;P1;durP1;ratioP1;P2;durP2;ratioP2
29700;SDS011;57917;51.380;-0.176;2023-12-20T00:02:11;783.22;;;109.72;;
29700;SDS011;57917;51.380;-0.176;2023-12-20T00:07:59;784.50;;;113.68;;
29700;SDS011;57917;51.380;-0.176;2023-12-20T00:13:46;785.13;;;108.47;;
29700;SDS011;57917;51.380;-0.176;2023-12-20T00:19:37;559.57;;;76.27;;
29700;SDS011;57917;51.380;-0.176;2023-12-20T00:25:27;792.88;;;104.97;;
29700;SDS011;57917;51.380;-0.176;2023-12-20T00:31:17;790.90;;;108.35;;
29700;SDS011;57917;51.380;-0.176;2023-12-20T00:37:04;15.73;;;5.57;;
29700;SDS011;57917;51.380;-0.176;2023-12-20T00:42:57;14.27;;;4.97;;
29700;SDS011;57917;51.380;-0.176;2023-12-20T00:48:44;15.18;;;5.72;;
29700;SDS011;57917;51.380;-0.176;2023-12-20T00:54:41;22.85;;;6.10;;
29700;SDS011;57917;51.380;-0.176;2023-12-20T01:00:34;739.58;;;98.38;;
29700;SDS011;57917;51.380;-0.176;2023-12-20T01:07:40;472.60;;;64.80;;
29700;SDS011;57917;51.380;-0.176;2023-12-20T01:13:31;707.70;;;96.95;;
29700;SDS011;57917;51.380;-0.176;2023-12-20T01:19:18;745.53;;;100.53;;
29700;SDS011;57917;51.380;-0.176;2023-12-20T01:25:07;777.78;;;106.05;;
29700;SDS011;57917;51.380;-0.176;2023-12-20T01:30:54;778.72;;;104.55;;
29700;SDS011;57917;51.380;-0.176;2023-12-20T01:36:41;774.97;;;103.22;;
29700;SDS011;57917;51.380;-0.176;2023-12-20T01:42:29;782.75;;;103.55;;
29700;SDS011;57917;51.380;-0.176;2023-12-20T01:48:22;805.25;;;107.65;;
29700;SDS011;57917;51.380;-0.176;2023-12-20T01:54:13;813.63;;;110.78;;
29700;SDS011;57917;51.380;-0.176;2023-12-20T02:00:03;814.22;;;108.93;;
29700;SDS011;57917;51.380;-0.176;2023-12-20T02:05:51;812.15;;;111.65;;
29700;SDS011;57917;51.380;-0.176;2023-12-20T02:11:41;805.80;;;108.50;;
29700;SDS011;57917;51.380;-0.176;2023-12-20T02:17:29;800.75;;;106.60;;
29700;SDS011;57917;51.380;-0.176;2023-12-20T02:23:30;805.13;;;110.35;;
29700;SDS011;57917;51.380;-0.176;2023-12-20T02:29:17;803.13;;;109.93;;
29700;SDS011;57917;51.380;-0.176;2023-12-20T02:35:06;780.20;;;116.18;;
29700;SDS011;57917;51.380;-0.176;2023-12-20T02:46:53;787.42;;;104.80;;
29700;SDS011;57917;51.380;-0.176;2023-12-20T02:52:42;773.03;;;103.72;;
29700;SDS011;57917;51.380;-0.176;2023-12-20T03:04:20;776.47;;;103.80;;
29700;SDS011;57917;51.380;-0.176;2023-12-20T03:10:11;771.42;;;103.50;;
29700;SDS011;57917;51.380;-0.176;2023-12-20T03:16:09;785.47;;;103.10;;
29700;SDS011;57917;51.380;-0.176;2023-12-20T03:22:00;757.45;;;103.00;;
29700;SDS011;57917;51.380;-0.176;2023-12-20T03:27:50;790.67;;;103.93;;
29700;SDS011;57917;51.380;-0.176;2023-12-20T03:33:39;797.37;;;103.87;;
29700;SDS011;57917;51.380;-0.176;2023-12-20T03:39:26;796.35;;;105.57;;
29700;SDS011;57917;51.380;-0.176;2023-12-20T03:45:13;793.67;;;104.95;;
29700;SDS011;57917;51.380;-0.176;2023-12-20T03:51:00;802.13;;;107.03;;
29700;SDS011;57917;51.380;-0.176;2023-12-20T03:56:46;806.95;;;106.93;;
29700;SDS011;57917;51.380;-0.176;2023-12-20T04:02:56;821.35;;;109.97;;
29700;SDS011;57917;51.380;-0.176;2023-12-20T04:09:04;826.55;;;111.32;;
29700;SDS011;57917;51.380;-0.176;2023-12-20T04:14:51;838.65;;;112.72;;
29700;SDS011;57917;51.380;-0.176;2023-12-20T04:20:45;833.40;;;110.40;;
29700;SDS011;57917;51.380;-0.176;2023-12-20T04:26:36;837.78;;;111.78;;
29700;SDS011;57917;51.380;-0.176;2023-12-20T04:32:25;834.95;;;110.65;;
29700;SDS011;57917;51.380;-0.176;2023-12-20T04:38:19;841.08;;;112.50;;
29700;SDS011;57917;51.380;-0.176;2023-12-20T04:44:30;835.67;;;110.75;;
29700;SDS011;57917;51.380;-0.176;2023-12-20T04:50:17;842.50;;;112.25;;
29700;SDS011;57917;51.380;-0.176;2023-12-20T04:56:04;841.65;;;115.32;;
29700;SDS011;57917;51.380;-0.176;2023-12-20T05:01:52;840.53;;;111.88;;
29700;SDS011;57917;51.380;-0.176;2023-12-20T05:07:41;845.53;;;114.38;;
29700;SDS011;57917;51.380;-0.176;2023-12-20T05:13:28;842.25;;;114.80;;
29700;SDS011;57917;51.380;-0.176;2023-12-20T05:19:30;851.77;;;118.40;;
29700;SDS011;57917;51.380;-0.176;2023-12-20T05:25:17;862.70;;;118.43;;
29700;SDS011;57917;51.380;-0.176;2023-12-20T05:31:05;884.55;;;118.70;;
29700;SDS011;57917;51.380;-0.176;2023-12-20T05:36:57;858.78;;;114.72;;
29700;SDS011;57917;51.380;-0.176;2023-12-20T05:42:44;867.05;;;116.85;;
29700;SDS011;57917;51.380;-0.176;2023-12-20T05:48:33;862.15;;;115.88;;
29700;SDS011;57917;51.380;-0.176;2023-12-20T05:54:21;877.13;;;120.35;;
29700;SDS011;57917;51.380;-0.176;2023-12-20T06:00:11;876.83;;;120.90;;
29700;SDS011;57917;51.380;-0.176;2023-12-20T06:05:58;868.85;;;117.60;;
29700;SDS011;57917;51.380;-0.176;2023-12-20T06:12:01;853.88;;;116.72;;
29700;SDS011;57917;51.380;-0.176;2023-12-20T06:17:48;844.47;;;113.63;;
29700;SDS011;57917;51.380;-0.176;2023-12-20T06:23:35;847.10;;;113.20;;
29700;SDS011;57917;51.380;-0.176;2023-12-20T06:29:34;850.10;;;112.15;;
29700;SDS011;57917;51.380;-0.176;2023-12-20T06:35:22;854.45;;;114.97;;
29700;SDS011;57917;51.380;-0.176;2023-12-20T06:41:12;854.05;;;115.97;;
29700;SDS011;57917;51.380;-0.176;2023-12-20T06:47:01;842.67;;;113.55;;
29700;SDS011;57917;51.380;-0.176;2023-12-20T06:52:48;837.15;;;115.03;;
29700;SDS011;57917;51.380;-0.176;2023-12-20T06:58:36;832.25;;;109.70;;
29700;SDS011;57917;51.380;-0.176;2023-12-20T07:04:24;847.22;;;117.75;;
29700;SDS011;57917;51.380;-0.176;2023-12-20T07:10:26;840.97;;;117.72;;
29700;SDS011;57917;51.380;-0.176;2023-12-20T07:16:13;836.22;;;117.75;;
29700;SDS011;57917;51.380;-0.176;2023-12-20T07:22:00;837.03;;;115.97;;
29700;SDS011;57917;51.380;-0.176;2023-12-20T07:27:50;839.53;;;116.75;;
29700;SDS011;57917;51.380;-0.176;2023-12-20T07:33:42;830.85;;;117.85;;
29700;SDS011;57917;51.380;-0.176;2023-12-20T07:39:48;841.72;;;114.78;;
29700;SDS011;57917;51.380;-0.176;2023-12-20T07:45:35;861.10;;;119.22;;
29700;SDS011;57917;51.380;-0.176;2023-12-20T07:51:22;878.58;;;120.03;;
29700;SDS011;57917;51.380;-0.176;2023-12-20T07:57:09;869.50;;;120.95;;
29700;SDS011;57917;51.380;-0.176;2023-12-20T08:02:59;869.50;;;119.53;;
29700;SDS011;57917;51.380;-0.176;2023-12-20T08:08:46;874.35;;;121.25;;
29700;SDS011;57917;51.380;-0.176;2023-12-20T08:14:44;873.17;;;124.95;;
29700;SDS011;57917;51.380;-0.176;2023-12-20T08:20:33;868.05;;;124.30;;
29700;SDS011;57917;51.380;-0.176;2023-12-20T08:26:26;870.72;;;124.88;;
29700;SDS011;57917;51.380;-0.176;2023-12-20T08:32:13;874.00;;;124.28;;
29700;SDS011;57917;51.380;-0.176;2023-12-20T08:38:01;882.33;;;126.53;;
29700;SDS011;57917;51.380;-0.176;2023-12-20T08:43:47;843.35;;;125.60;;
29700;SDS011;57917;51.380;-0.176;2023-12-20T08:49:34;869.50;;;127.30;;
29700;SDS011;57917;51.380;-0.176;2023-12-20T08:55:22;872.03;;;133.25;;
29700;SDS011;57917;51.380;-0.176;2023-12-20T09:01:30;896.28;;;132.70;;
29700;SDS011;57917;51.380;-0.176;2023-12-20T09:07:26;882.65;;;131.50;;
29700;SDS011;57917;51.380;-0.176;2023-12-20T09:13:19;881.10;;;134.27;;
29700;SDS011;57917;51.380;-0.176;2023-12-20T09:19:07;865.42;;;137.73;;
29700;SDS011;57917;51.380;-0.176;2023-12-20T09:24:56;844.10;;;138.40;;
29700;SDS011;57917;51.380;-0.176;2023-12-20T09:30:43;871.80;;;140.52;;
29700;SDS011;57917;51.380;-0.176;2023-12-20T09:36:33;860.80;;;146.32;;
29700;SDS011;57917;51.380;-0.176;2023-12-20T09:48:28;880.10;;;153.20;;
29700;SDS011;57917;51.380;-0.176;2023-12-20T09:54:38;894.13;;;152.68;;
29700;SDS011;57917;51.380;-0.176;2023-12-20T10:00:50;924.25;;;152.82;;
29700;SDS011;57917;51.380;-0.176;2023-12-20T10:06:48;933.67;;;153.32;;
29700;SDS011;57917;51.380;-0.176;2023-12-20T10:13:05;927.42;;;154.30;;
29700;SDS011;57917;51.380;-0.176;2023-12-20T10:18:59;649.97;;;104.85;;
29700;SDS011;57917;51.380;-0.176;2023-12-20T10:24:48;914.15;;;147.18;;
29700;SDS011;57917;51.380;-0.176;2023-12-20T10:30:34;923.25;;;150.15;;
29700;SDS011;57917;51.380;-0.176;2023-12-20T10:36:23;922.20;;;149.82;;
29700;SDS011;57917;51.380;-0.176;2023-12-20T10:42:13;925.30;;;154.48;;
29700;SDS011;57917;51.380;-0.176;2023-12-20T10:48:02;923.50;;;149.88;;
29700;SDS011;57917;51.380;-0.176;2023-12-20T10:53:51;925.50;;;154.10;;
29700;SDS011;57917;51.380;-0.176;2023-12-20T10:59:39;931.47;;;157.32;;
29700;SDS011;57917;51.380;-0.176;2023-12-20T11:05:32;931.30;;;156.93;;
29700;SDS011;57917;51.380;-0.176;2023-12-20T11:11:41;928.20;;;155.85;;
29700;SDS011;57917;51.380;-0.176;2023-12-20T11:17:46;929.83;;;153.52;;
29700;SDS011;57917;51.380;-0.176;2023-12-20T11:23:42;928.53;;;153.45;;
29700;SDS011;57917;51.380;-0.176;2023-12-20T11:29:29;931.13;;;156.40;;
29700;SDS011;57917;51.380;-0.176;2023-12-20T11:35:24;938.22;;;157.30;;
29700;SDS011;57917;51.380;-0.176;2023-12-20T11:41:13;936.08;;;162.32;;
29700;SDS011;57917;51.380;-0.176;2023-12-20T11:47:02;928.75;;;154.18;;
29700;SDS011;57917;51.380;-0.176;2023-12-20T11:52:52;931.88;;;156.27;;
29700;SDS011;57917;51.380;-0.176;2023-12-20T11:58:40;933.22;;;162.32;;
29700;SDS011;57917;51.380;-0.176;2023-12-20T12:04:27;935.40;;;159.18;;
29700;SDS011;57917;51.380;-0.176;2023-12-20T12:10:15;928.88;;;164.27;;
29700;SDS011;57917;51.380;-0.176;2023-12-20T12:16:01;925.70;;;164.98;;
29700;SDS011;57917;51.380;-0.176;2023-12-20T12:21:49;921.70;;;163.90;;
29700;SDS011;57917;51.380;-0.176;2023-12-20T12:27:37;926.97;;;165.60;;
29700;SDS011;57917;51.380;-0.176;2023-12-20T12:33:26;930.90;;;167.18;;
29700;SDS011;57917;51.380;-0.176;2023-12-20T12:39:13;929.65;;;168.77;;
29700;SDS011;57917;51.380;-0.176;2023-12-20T12:45:04;933.33;;;172.65;;
29700;SDS011;57917;51.380;-0.176;2023-12-20T12:50:54;939.67;;;179.45;;
29700;SDS011;57917;51.380;-0.176;2023-12-20T12:56:45;935.15;;;178.10;;
29700;SDS011;57917;51.380;-0.176;2023-12-20T13:02:37;932.10;;;179.07;;
29700;SDS011;57917;51.380;-0.176;2023-12-20T13:08:29;930.25;;;181.52;;
29700;SDS011;57917;51.380;-0.176;2023-12-20T13:14:20;939.40;;;194.55;;
29700;SDS011;57917;51.380;-0.176;2023-12-20T13:20:08;940.28;;;185.52;;
29700;SDS011;57917;51.380;-0.176;2023-12-20T13:25:55;959.83;;;184.68;;
29700;SDS011;57917;51.380;-0.176;2023-12-20T13:31:42;937.60;;;183.80;;
29700;SDS011;57917;51.380;-0.176;2023-12-20T13:37:39;932.38;;;177.82;;
29700;SDS011;57917;51.380;-0.176;2023-12-20T13:43:27;928.47;;;176.25;;
29700;SDS011;57917;51.380;-0.176;2023-12-20T13:49:14;924.75;;;171.50;;
29700;SDS011;57917;51.380;-0.176;2023-12-20T13:55:03;923.85;;;173.00;;
29700;SDS011;57917;51.380;-0.176;2023-12-20T14:00:55;925.30;;;172.00;;
29700;SDS011;57917;51.380;-0.176;2023-12-20T14:06:42;921.35;;;169.23;;
29700;SDS011;57917;51.380;-0.176;2023-12-20T14:12:29;926.08;;;176.27;;
29700;SDS011;57917;51.380;-0.176;2023-12-20T14:18:16;923.67;;;171.18;;
29700;SDS011;57917;51.380;-0.176;2023-12-20T14:24:03;923.35;;;171.65;;
29700;SDS011;57917;51.380;-0.176;2023-12-20T14:29:54;920.08;;;173.05;;
29700;SDS011;57917;51.380;-0.176;2023-12-20T14:35:41;920.47;;;173.35;;
29700;SDS011;57917;51.380;-0.176;2023-12-20T14:41:31;924.58;;;178.48;;
29700;SDS011;57917;51.380;-0.176;2023-12-20T14:47:23;921.30;;;173.37;;
29700;SDS011;57917;51.380;-0.176;2023-12-20T14:53:14;916.17;;;167.60;;
29700;SDS011;57917;51.380;-0.176;2023-12-20T14:59:09;914.83;;;172.00;;
29700;SDS011;57917;51.380;-0.176;2023-12-20T15:04:59;907.38;;;167.15;;
29700;SDS011;57917;51.380;-0.176;2023-12-20T15:10:47;908.33;;;167.52;;
29700;SDS011;57917;51.380;-0.176;2023-12-20T15:16:35;905.65;;;163.55;;
29700;SDS011;57917;51.380;-0.176;2023-12-20T15:22:22;905.92;;;161.25;;
29700;SDS011;57917;51.380;-0.176;2023-12-20T15:28:10;902.47;;;158.65;;
29700;SDS011;57917;51.380;-0.176;2023-12-20T15:33:57;898.38;;;154.20;;
29700;SDS011;57917;51.380;-0.176;2023-12-20T15:39:58;643.37;;;110.07;;
29700;SDS011;57917;51.380;-0.176;2023-12-20T15:45:52;895.72;;;157.88;;
29700;SDS011;57917;51.380;-0.176;2023-12-20T15:51:39;896.58;;;156.10;;
29700;SDS011;57917;51.380;-0.176;2023-12-20T15:57:26;896.97;;;157.93;;
29700;SDS011;57917;51.380;-0.176;2023-12-20T16:03:18;902.85;;;160.85;;
29700;SDS011;57917;51.380;-0.176;2023-12-20T16:09:14;895.05;;;157.18;;
29700;SDS011;57917;51.380;-0.176;2023-12-20T16:15:30;617.13;;;106.50;;
29700;SDS011;57917;51.380;-0.176;2023-12-20T16:21:17;895.83;;;155.43;;
29700;SDS011;57917;51.380;-0.176;2023-12-20T16:27:04;896.78;;;158.10;;
29700;SDS011;57917;51.380;-0.176;2023-12-20T16:32:51;896.88;;;158.73;;
29700;SDS011;57917;51.380;-0.176;2023-12-20T16:38:39;889.38;;;153.65;;
29700;SDS011;57917;51.380;-0.176;2023-12-20T16:44:32;891.28;;;161.27;;
29700;SDS011;57917;51.380;-0.176;2023-12-20T16:50:25;925.65;;;175.98;;
29700;SDS011;57917;51.380;-0.176;2023-12-20T16:56:27;929.42;;;171.68;;
29700;SDS011;57917;51.380;-0.176;2023-12-20T17:02:15;929.53;;;172.63;;
29700;SDS011;57917;51.380;-0.176;2023-12-20T17:08:06;930.13;;;171.18;;
29700;SDS011;57917;51.380;-0.176;2023-12-20T17:13:54;930.20;;;174.45;;
29700;SDS011;57917;51.380;-0.176;2023-12-20T17:19:42;928.85;;;168.32;;
29700;SDS011;57917;51.380;-0.176;2023-12-20T17:25:36;929.45;;;172.00;;
29700;SDS011;57917;51.380;-0.176;2023-12-20T17:31:28;925.67;;;165.57;;
29700;SDS011;57917;51.380;-0.176;2023-12-20T17:37:17;925.97;;;168.25;;
29700;SDS011;57917;51.380;-0.176;2023-12-20T17:43:05;927.70;;;167.70;;
29700;SDS011;57917;51.380;-0.176;2023-12-20T17:48:52;926.75;;;170.52;;
29700;SDS011;57917;51.380;-0.176;2023-12-20T17:54:39;921.92;;;163.10;;
29700;SDS011;57917;51.380;-0.176;2023-12-20T18:00:35;924.88;;;165.80;;
29700;SDS011;57917;51.380;-0.176;2023-12-20T18:06:23;925.27;;;165.33;;
29700;SDS011;57917;51.380;-0.176;2023-12-20T18:12:11;921.95;;;162.57;;
29700;SDS011;57917;51.380;-0.176;2023-12-20T18:17:58;919.20;;;162.82;;
29700;SDS011;57917;51.380;-0.176;2023-12-20T18:23:45;920.65;;;162.35;;
29700;SDS011;57917;51.380;-0.176;2023-12-20T18:29:35;923.70;;;168.48;;
29700;SDS011;57917;51.380;-0.176;2023-12-20T18:35:22;921.38;;;166.63;;
29700;SDS011;57917;51.380;-0.176;2023-12-20T18:41:10;922.38;;;166.40;;
29700;SDS011;57917;51.380;-0.176;2023-12-20T18:47:04;922.05;;;164.27;;
29700;SDS011;57917;51.380;-0.176;2023-12-20T18:52:52;921.78;;;164.55;;
29700;SDS011;57917;51.380;-0.176;2023-12-20T18:58:39;923.15;;;168.05;;
29700;SDS011;57917;51.380;-0.176;2023-12-20T19:04:26;924.00;;;167.48;;
29700;SDS011;57917;51.380;-0.176;2023-12-20T19:10:13;927.67;;;164.82;;
29700;SDS011;57917;51.380;-0.176;2023-12-20T19:16:00;920.50;;;166.95;;
29700;SDS011;57917;51.380;-0.176;2023-12-20T19:21:48;921.15;;;165.70;;
29700;SDS011;57917;51.380;-0.176;2023-12-20T19:27:35;907.97;;;160.30;;
29700;SDS011;57917;51.380;-0.176;2023-12-20T19:33:22;918.28;;;164.82;;
29700;SDS011;57917;51.380;-0.176;2023-12-20T19:39:09;920.47;;;166.27;;
29700;SDS011;57917;51.380;-0.176;2023-12-20T19:44:56;925.50;;;169.18;;
29700;SDS011;57917;51.380;-0.176;2023-12-20T19:50:43;922.15;;;169.05;;
29700;SDS011;57917;51.380;-0.176;2023-12-20T19:56:30;919.85;;;163.63;;
29700;SDS011;57917;51.380;-0.176;2023-12-20T20:02:17;920.25;;;164.60;;
29700;SDS011;57917;51.380;-0.176;2023-12-20T20:08:08;916.88;;;165.38;;
29700;SDS011;57917;51.380;-0.176;2023-12-20T20:13:58;927.42;;;169.65;;
29700;SDS011;57917;51.380;-0.176;2023-12-20T20:19:46;911.78;;;166.00;;
29700;SDS011;57917;51.380;-0.176;2023-12-20T20:25:33;913.88;;;166.30;;
29700;SDS011;57917;51.380;-0.176;2023-12-20T20:31:20;910.10;;;163.48;;
29700;SDS011;57917;51.380;-0.176;2023-12-20T20:37:07;911.92;;;164.82;;
29700;SDS011;57917;51.380;-0.176;2023-12-20T20:42:54;914.03;;;163.40;;
29700;SDS011;57917;51.380;-0.176;2023-12-20T20:48:41;913.92;;;162.43;;
29700;SDS011;57917;51.380;-0.176;2023-12-20T20:54:37;911.88;;;159.15;;
29700;SDS011;57917;51.380;-0.176;2023-12-20T21:00:24;910.42;;;164.68;;
29700;SDS011;57917;51.380;-0.176;2023-12-20T21:06:11;917.03;;;163.45;;
29700;SDS011;57917;51.380;-0.176;2023-12-20T21:11:59;912.00;;;159.68;;
29700;SDS011;57917;51.380;-0.176;2023-12-20T21:17:46;910.75;;;160.27;;
29700;SDS011;57917;51.380;-0.176;2023-12-20T21:23:35;914.70;;;163.63;;
29700;SDS011;57917;51.380;-0.176;2023-12-20T21:29:23;913.03;;;165.00;;
29700;SDS011;57917;51.380;-0.176;2023-12-20T21:35:10;918.70;;;167.43;;
29700;SDS011;57917;51.380;-0.176;2023-12-20T21:41:01;915.95;;;165.07;;
29700;SDS011;57917;51.380;-0.176;2023-12-20T21:46:48;915.50;;;164.25;;
29700;SDS011;57917;51.380;-0.176;2023-12-20T21:52:35;905.42;;;163.50;;
29700;SDS011;57917;51.380;-0.176;2023-12-20T21:58:22;908.05;;;166.98;;
29700;SDS011;57917;51.380;-0.176;2023-12-20T22:04:09;902.40;;;160.10;;
29700;SDS011;57917;51.380;-0.176;2023-12-20T22:10:00;910.92;;;170.65;;
29700;SDS011;57917;51.380;-0.176;2023-12-20T22:15:50;909.03;;;166.25;;
29700;SDS011;57917;51.380;-0.176;2023-12-20T22:21:40;903.22;;;160.57;;
29700;SDS011;57917;51.380;-0.176;2023-12-20T22:27:37;901.97;;;161.52;;
29700;SDS011;57917;51.380;-0.176;2023-12-20T22:33:37;903.92;;;162.18;;
29700;SDS011;57917;51.380;-0.176;2023-12-20T22:47:55;899.10;;;158.40;;
29700;SDS011;57917;51.380;-0.176;2023-12-20T22:53:50;908.63;;;164.05;;
29700;SDS011;57917;51.380;-0.176;2023-12-20T23:07:00;912.25;;;165.43;;
29700;SDS011;57917;51.380;-0.176;2023-12-20T23:12:47;907.40;;;166.75;;
29700;SDS011;57917;51.380;-0.176;2023-12-20T23:18:51;900.15;;;163.25;;
29700;SDS011;57917;51.380;-0.176;2023-12-20T23:24:38;898.80;;;159.50;;
29700;SDS011;57917;51.380;-0.176;2023-12-20T23:30:26;906.10;;;167.23;;
29700;SDS011;57917;51.380;-0.176;2023-12-20T23:36:13;898.75;;;163.90;;
29700;SDS011;57917;51.380;-0.176;2023-12-20T23:42:00;904.03;;;165.73;;
29700;SDS011;57917;51.380;-0.176;2023-12-20T23:47:47;907.17;;;166.93;;
29700;SDS011;57917;51.380;-0.176;2023-12-20T23:53:40;909.55;;;168.30;;
29700;SDS011;57917;51.380;-0.176;2023-12-20T23:59:30;906.33;;;169.52;;
